Time;durP1;ratioP1;P1;durP2;ratioP2;P2;SDS_P1;SDS_P2;PMS_P1;PMS_P2;Temp;Humidity;BMP_temperature;BMP_pressure;BME280_temperature;BME280_humidity;BME280_pressure;Samples;Min_cycle;Max_cycle;Signal;HPM_P1;HPM_P2
2023/01/04 00:01:48;;;;;;;4.30;3.90;;;;;;;-16.12;75.93;99893.69;4942024;28;20060;-83
2023/01/04 00:04:36;;;;;;;11.23;6.38;;;;;;;-16.03;75.27;99890.19;4942433;28;20036;-83
2023/01/04 00:07:07;;;;;;;18.08;6.03;;;;;;;-15.95;75.51;99886.69;4947909;28;20102;-82
2023/01/04 00:09:37;;;;;;;29.08;10.40;;;;;;;-15.81;74.58;99860.28;4942305;28;20098;-83
2023/01/04 00:12:09;;;;;;;29.73;9.35;;;;;;;-15.66;73.88;99877.38;4944562;28;20056;-83
2023/01/04 00:14:40;;;;;;;27.17;9.15;;;;;;;-15.57;74.17;99891.38;4949041;28;20040;-83
2023/01/04 00:17:46;;;;;;;53.67;17.60;;;;;;;-15.30;74.53;99883.56;4952533;28;20508;-83
2023/01/04 00:20:35;;;;;;;27.40;9.57;;;;;;;-15.15;73.84;99890.53;4938635;28;20393;-83
2023/01/04 00:23:23;;;;;;;30.05;10.57;;;;;;;-15.01;73.32;99888.34;4946917;28;20386;-83
2023/01/04 00:26:12;;;;;;;50.83;13.63;;;;;;;-14.92;73.19;99874.75;4928754;28;20055;-83
2023/01/04 00:28:44;;;;;;;19.17;7.65;;;;;;;-14.54;73.57;99891.91;4954109;28;20105;-83
2023/01/04 00:31:23;;;;;;;20.15;6.40;;;;;;;-14.24;72.78;99903.34;4934543;28;21237;-83
2023/01/04 00:33:55;;;;;;;6.15;3.45;;;;;;;-14.10;72.08;99897.75;4946589;28;20045;-82
2023/01/04 00:36:27;;;;;;;6.43;4.20;;;;;;;-13.92;72.22;99909.16;4940073;28;20110;-83
2023/01/04 00:39:08;;;;;;;9.48;5.15;;;;;;;-13.76;71.42;99891.03;4948906;28;20111;-81
2023/01/04 00:41:40;;;;;;;9.20;5.18;;;;;;;-13.37;70.57;99901.38;4935003;28;20104;-82
2023/01/04 00:44:32;;;;;;;27.80;10.75;;;;;;;-13.49;69.44;99874.59;4934604;28;20107;-81
2023/01/04 00:47:21;;;;;;;22.02;9.38;;;;;;;-13.38;68.25;99904.66;4926071;28;20119;-81
2023/01/04 00:49:52;;;;;;;13.63;6.80;;;;;;;-13.22;69.17;99922.56;4907372;28;20399;-82
2023/01/04 00:52:23;;;;;;;11.80;5.95;;;;;;;-12.94;68.54;99884.28;4920166;28;20143;-81
2023/01/04 00:54:53;;;;;;;9.20;5.70;;;;;;;-12.86;68.40;99890.72;4932795;28;20048;-82
2023/01/04 00:57:24;;;;;;;7.72;4.55;;;;;;;-12.72;68.22;99892.56;4931746;28;20115;-81
2023/01/04 00:59:56;;;;;;;4.43;3.80;;;;;;;-12.56;67.47;99898.66;4926268;28;20049;-81
2023/01/04 01:02:29;;;;;;;4.95;3.88;;;;;;;-12.38;67.59;99889.84;4929335;28;20075;-81
2023/01/04 01:05:00;;;;;;;4.93;3.55;;;;;;;-12.16;67.59;99890.50;4932356;28;20059;-82
2023/01/04 01:07:30;;;;;;;7.75;3.00;;;;;;;-11.95;67.06;99872.59;4927950;28;20444;-82
2023/01/04 01:10:01;;;;;;;5.22;3.60;;;;;;;-11.74;66.41;99878.13;4943266;28;20060;-82
2023/01/04 01:12:31;;;;;;;8.07;4.65;;;;;;;-11.51;65.31;99879.63;4940282;28;20402;-82
2023/01/04 01:15:04;;;;;;;11.68;3.75;;;;;;;-11.38;64.81;99884.69;4938001;28;20442;-81
2023/01/04 01:17:37;;;;;;;9.27;4.90;;;;;;;-11.37;64.76;99848.59;4943801;28;20051;-84
2023/01/04 01:20:28;;;;;;;6.20;3.45;;;;;;;-11.17;63.52;99879.25;4919967;28;20122;-84
2023/01/04 01:22:59;;;;;;;4.88;3.30;;;;;;;-11.36;62.98;99884.78;4926668;28;20044;-84
2023/01/04 01:25:29;;;;;;;4.63;2.90;;;;;;;-11.36;63.00;99854.50;4940343;28;20051;-84
2023/01/04 01:28:00;;;;;;;4.70;2.70;;;;;;;-11.26;63.08;99866.94;4932745;28;20057;-85
2023/01/04 01:30:35;;;;;;;4.43;2.88;;;;;;;-11.32;62.65;99842.19;4928409;28;20053;-85
2023/01/04 01:33:08;;;;;;;10.35;4.93;;;;;;;-10.98;62.38;99872.09;4922803;28;20044;-85
2023/01/04 01:35:39;;;;;;;5.25;2.83;;;;;;;-10.67;62.35;99868.91;4932897;28;20496;-85
2023/01/04 01:38:11;;;;;;;6.20;3.33;;;;;;;-10.38;61.81;99867.28;4929339;28;20377;-85
2023/01/04 01:43:52;;;;;;;10.18;4.53;;;;;;;-10.11;63.78;99873.94;4927509;28;20099;-84
2023/01/04 01:46:29;;;;;;;7.72;2.80;;;;;;;-10.12;61.09;99867.16;4917015;28;20077;-84
2023/01/04 01:49:04;;;;;;;4.18;2.65;;;;;;;-9.98;60.55;99865.44;4931966;28;20052;-84
2023/01/04 01:51:35;;;;;;;4.65;2.75;;;;;;;-9.91;60.56;99871.72;4931560;28;20045;-84
2023/01/04 01:54:26;;;;;;;3.67;2.50;;;;;;;-9.92;60.35;99847.25;4936496;28;20037;-85
2023/01/04 01:56:58;;;;;;;3.85;2.40;;;;;;;-9.71;59.53;99833.28;4927986;28;20055;-86
2023/01/04 01:59:51;;;;;;;4.90;2.72;;;;;;;-9.37;59.29;99861.38;4947104;28;20116;-84
2023/01/04 02:02:23;;;;;;;5.03;2.80;;;;;;;-9.38;58.71;99856.25;4912283;28;20091;-84
2023/01/04 02:04:56;;;;;;;6.32;2.60;;;;;;;-9.27;58.61;99845.03;4937490;28;20094;-86
2023/01/04 02:07:45;;;;;;;6.57;2.70;;;;;;;-9.60;57.73;99855.00;4921289;28;20044;-86
2023/01/04 02:10:16;;;;;;;3.72;2.50;;;;;;;-9.73;58.82;99832.34;4914977;28;20067;-88
2023/01/04 02:12:48;;;;;;;3.35;2.60;;;;;;;-9.32;59.19;99845.59;4935880;28;20036;-84
2023/01/04 02:15:19;;;;;;;5.72;2.40;;;;;;;-9.34;58.71;99832.84;4927329;28;20051;-84
2023/01/04 02:18:00;;;;;;;6.35;2.47;;;;;;;-9.19;58.73;99848.00;4934435;28;20047;-84
2023/01/04 02:20:44;;;;;;;4.63;2.50;;;;;;;-8.86;58.50;99843.94;4917350;28;20106;-83
2023/01/04 02:23:48;;;;;;;2.72;2.10;;;;;;;-8.71;57.63;99844.75;4921701;28;20063;-85
2023/01/04 02:26:47;;;;;;;4.82;2.50;;;;;;;-8.84;57.64;99827.13;4938112;28;20210;-85
2023/01/04 02:29:53;;;;;;;3.38;2.45;;;;;;;-8.40;57.25;99841.28;4918166;28;20044;-84
2023/01/04 02:32:36;;;;;;;3.67;1.90;;;;;;;-8.16;56.96;99840.75;4898546;28;20048;-85
2023/01/04 02:35:16;;;;;;;6.35;2.45;;;;;;;-8.26;56.12;99814.97;4924452;28;20083;-87
2023/01/04 02:37:49;;;;;;;;;;;;;;;-8.05;56.03;99829.50;4918628;28;20253;-85
2023/01/04 02:40:26;;;;;;;3.90;2.28;;;;;;;-7.91;58.20;99782.91;4938403;28;19930;-84
2023/01/04 02:46:17;;;;;;;3.13;2.15;;;;;;;-8.16;53.91;99835.69;4918002;28;20326;-83
2023/01/04 02:51:39;;;;;;;2.67;1.85;;;;;;;-8.25;54.68;99796.41;4934670;28;20052;-83
2023/01/04 02:54:31;;;;;;;3.20;1.95;;;;;;;-8.27;54.53;99808.13;4937508;28;20114;-83
2023/01/04 02:57:15;;;;;;;5.00;2.10;;;;;;;-8.51;55.09;99807.78;4908447;28;20345;-84
2023/01/04 02:59:59;;;;;;;3.72;1.90;;;;;;;-8.71;55.61;99814.34;4917465;28;20086;-84
2023/01/04 03:08:38;;;;;;;5.60;2.33;;;;;;;-8.76;56.33;99805.63;4925156;28;20325;-85
2023/01/04 03:14:01;;;;;;;4.90;2.35;;;;;;;-8.58;56.34;99792.19;4925954;28;20043;-85
2023/01/04 03:16:53;;;;;;;3.72;2.00;;;;;;;-8.27;57.60;99777.72;4916242;28;20340;-83
2023/01/04 03:19:53;;;;;;;5.40;2.00;;;;;;;-8.52;56.66;99754.50;4937063;28;20375;-82
2023/01/04 03:37:14;;;;;;;5.32;2.10;;;;;;;-8.57;58.43;99766.06;4919483;28;20066;-85
2023/01/04 03:52:36;;;;;;;3.85;2.03;;;;;;;-9.07;58.17;99797.19;4921640;28;20052;-80
2023/01/04 03:55:10;;;;;;;3.95;2.22;;;;;;;-9.39;58.21;99735.56;4934184;28;20377;-83
2023/01/04 03:57:42;;;;;;;3.25;2.10;;;;;;;-8.86;58.73;99790.75;4925789;28;20053;-82
2023/01/04 04:00:17;;;;;;;4.13;2.28;;;;;;;-9.36;56.26;99723.97;4933510;28;20090;-81
2023/01/04 04:02:49;;;;;;;8.85;2.30;;;;;;;-9.57;56.25;99732.91;4940180;28;20051;-81
2023/01/04 04:08:30;;;;;;;3.70;1.88;;;;;;;-9.49;58.42;99777.19;4925027;28;20056;-80
2023/01/04 04:13:47;;;;;;;3.55;2.30;;;;;;;-9.19;59.26;99793.19;4923868;28;20292;-81
2023/01/04 04:16:18;;;;;;;4.13;2.25;;;;;;;-8.81;59.78;99789.34;4929073;28;20052;-80
2023/01/04 04:18:52;;;;;;;7.88;2.22;;;;;;;-8.23;59.17;99788.03;4939736;28;20049;-80
2023/01/04 04:21:23;;;;;;;3.88;2.75;;;;;;;-8.19;56.01;99794.97;4929020;28;20048;-79
2023/01/04 04:23:56;;;;;;;3.58;2.00;;;;;;;-8.56;56.59;99760.19;4935061;28;20059;-79
2023/01/04 04:26:28;;;;;;;4.28;2.00;;;;;;;-8.35;56.11;99804.34;4932375;28;20125;-80
2023/01/04 04:28:58;;;;;;;8.57;2.35;;;;;;;-8.27;57.27;99808.13;4933298;28;20052;-80
2023/01/04 04:31:29;;;;;;;4.63;1.80;;;;;;;-8.34;57.01;99801.00;4931255;28;20071;-79
2023/01/04 04:34:00;;;;;;;4.28;2.10;;;;;;;-8.41;57.40;99809.16;4929876;28;20052;-84
2023/01/04 04:36:30;;;;;;;2.92;1.98;;;;;;;-8.43;58.59;99808.19;4928240;28;20070;-81
2023/01/04 04:39:01;;;;;;;5.28;2.00;;;;;;;-8.66;59.00;99811.16;4939534;28;20053;-78
2023/01/04 04:41:52;;;;;;;5.13;2.15;;;;;;;-8.73;60.57;99805.78;4941920;28;20048;-80
2023/01/04 04:44:22;;;;;;;2.58;2.00;;;;;;;-9.00;60.42;99819.50;4923399;28;20097;-84
2023/01/04 04:46:55;;;;;;;5.63;2.30;;;;;;;-9.05;60.92;99816.72;4941387;28;20135;-84
2023/01/04 04:49:25;;;;;;;3.10;1.90;;;;;;;-9.10;61.53;99822.34;4929569;28;20048;-84
2023/01/04 04:51:56;;;;;;;4.80;2.03;;;;;;;-9.09;62.49;99824.06;4929630;28;20257;-84
2023/01/04 04:54:29;;;;;;;3.33;2.00;;;;;;;-9.22;63.07;99818.34;4934627;28;20052;-85
2023/01/04 04:57:01;;;;;;;5.63;1.98;;;;;;;-9.63;63.69;99786.56;4931251;28;20090;-83
2023/01/04 04:59:32;;;;;;;2.58;2.13;;;;;;;-9.57;64.52;99814.72;4934924;28;20045;-80
2023/01/04 05:02:02;;;;;;;6.07;1.98;;;;;;;-9.85;66.18;99806.38;4941073;28;20047;-80
2023/01/04 05:04:33;;;;;;;7.57;2.38;;;;;;;-9.91;66.30;99816.97;4940445;28;20048;-81
2023/01/04 05:07:21;;;;;;;5.07;2.47;;;;;;;-9.94;66.56;99815.94;4937040;28;20044;-81
2023/01/04 05:09:52;;;;;;;5.53;2.30;;;;;;;-9.86;66.87;99824.81;4931429;28;20054;-79
2023/01/04 05:15:12;;;;;;;6.60;2.30;;;;;;;-9.86;66.93;99824.81;4921837;28;20201;-82
2023/01/04 05:17:42;;;;;;;5.15;2.53;;;;;;;-9.80;66.43;99835.31;4938367;28;20096;-81
2023/01/04 05:20:13;;;;;;;7.03;2.53;;;;;;;-9.87;64.64;99825.63;4931642;28;20048;-81
2023/01/04 05:22:46;;;;;;;3.65;2.17;;;;;;;-9.78;61.82;99833.75;4939570;28;20362;-80
2023/01/04 05:25:17;;;;;;;5.10;2.08;;;;;;;-9.67;62.15;99837.75;4929309;28;20375;-80
2023/01/04 05:27:49;;;;;;;3.78;2.10;;;;;;;-9.65;60.71;99838.72;4942748;28;20287;-80
2023/01/04 05:33:08;;;;;;;5.35;2.03;;;;;;;-9.80;60.38;99843.75;4936877;28;20048;-79
2023/01/04 05:38:27;;;;;;;4.68;1.88;;;;;;;-9.99;61.06;99834.22;4927925;28;20091;-79
2023/01/04 05:40:57;;;;;;;2.35;2.15;;;;;;;-10.03;60.59;99847.50;4936459;28;20052;-79
2023/01/04 05:43:30;;;;;;;4.72;2.60;;;;;;;-10.22;60.41;99824.44;4943525;28;20054;-81
2023/01/04 05:46:00;;;;;;;4.35;1.90;;;;;;;-10.14;60.52;99853.56;4946173;28;20046;-81
2023/01/04 05:48:31;;;;;;;3.00;2.03;;;;;;;-10.28;60.53;99845.22;4941244;28;20061;-82
2023/01/04 05:51:02;;;;;;;3.85;2.20;;;;;;;-10.42;60.73;99844.38;4933791;28;20072;-81
2023/01/04 05:53:32;;;;;;;5.07;2.28;;;;;;;-10.49;61.15;99844.78;4925875;28;20053;-80
2023/01/04 05:56:03;;;;;;;7.47;2.53;;;;;;;-10.52;61.46;99849.66;4938629;28;20083;-83
2023/01/04 05:58:35;;;;;;;5.28;2.03;;;;;;;-10.56;61.40;99857.81;4935166;28;20052;-83
2023/01/04 06:01:06;;;;;;;7.55;2.50;;;;;;;-10.84;61.35;99808.97;4931152;28;20040;-83
2023/01/04 06:03:37;;;;;;;6.97;2.38;;;;;;;-10.70;61.56;99829.22;4931522;28;20040;-82
2023/01/04 06:06:08;;;;;;;2.80;1.92;;;;;;;-10.58;61.47;99851.81;4934421;28;20166;-82
2023/01/04 06:08:41;;;;;;;4.65;2.92;;;;;;;-10.64;61.92;99841.31;4934753;28;20056;-83
2023/01/04 06:11:12;;;;;;;4.75;2.10;;;;;;;-10.59;62.19;99852.59;4933390;28;20087;-83
2023/01/04 06:13:44;;;;;;;2.78;1.85;;;;;;;-11.12;62.56;99809.78;4932869;28;20917;-83
2023/01/04 06:16:15;;;;;;;9.50;2.45;;;;;;;-10.68;62.46;99869.72;4934452;28;20041;-83
2023/01/04 06:18:45;;;;;;;8.15;2.90;;;;;;;-10.69;62.49;99865.44;4942610;28;20070;-82
2023/01/04 06:21:22;;;;;;;6.95;2.30;;;;;;;-11.05;62.65;99819.50;4930012;28;20107;-82
2023/01/04 06:23:52;;;;;;;9.60;2.10;;;;;;;-10.89;62.75;99872.63;4921954;28;20402;-81
2023/01/04 06:26:41;;;;;;;2.25;1.92;;;;;;;-10.95;62.83;99872.28;4930437;28;20048;-82
2023/01/04 06:29:13;;;;;;;3.35;2.00;;;;;;;-11.05;62.70;99869.94;4916017;28;20399;-82
2023/01/04 06:31:45;;;;;;;7.22;2.40;;;;;;;-11.23;62.87;99856.16;4935572;28;20105;-82
2023/01/04 06:34:33;;;;;;;8.77;2.40;;;;;;;-11.22;63.34;99870.53;4932349;28;20040;-82
2023/01/04 06:37:04;;;;;;;3.67;2.45;;;;;;;-11.26;63.56;99863.53;4925836;28;20249;-82
2023/01/04 06:39:35;;;;;;;3.58;2.10;;;;;;;-11.26;63.69;99866.06;4939460;28;20379;-82
2023/01/04 06:42:43;;;;;;;5.30;2.00;;;;;;;-11.21;63.98;99872.28;4935453;28;20048;-82
2023/01/04 06:45:05;;;;;;;6.53;2.40;;;;;;;-11.40;64.35;99855.97;4917411;28;20338;-82
2023/01/04 06:47:37;;;;;;;4.43;2.13;;;;;;;-11.26;64.47;99886.25;4934234;28;20055;-82
2023/01/04 06:50:08;;;;;;;5.25;2.42;;;;;;;-11.54;64.66;99836.56;4933556;28;20090;-82
2023/01/04 06:52:39;;;;;;;4.15;2.40;;;;;;;-11.34;64.86;99874.00;4936005;28;20063;-81
2023/01/04 06:55:10;;;;;;;6.70;2.30;;;;;;;-11.42;64.90;99882.75;4939629;28;20044;-82
2023/01/04 06:57:42;;;;;;;4.97;2.45;;;;;;;-11.42;65.30;99887.78;4930666;28;20174;-82
2023/01/04 07:00:15;;;;;;;7.53;2.55;;;;;;;-11.44;65.48;99889.31;4937361;28;20359;-81
2023/01/04 07:02:47;;;;;;;5.15;2.30;;;;;;;-11.47;66.02;99894.19;4935698;28;20056;-82
2023/01/04 07:09:56;;;;;;;8.30;2.50;;;;;;;-11.69;66.85;99891.03;4846270;28;20053;-83
2023/01/04 07:16:17;;;;;;;9.95;4.13;;;;;;;-11.90;67.43;99890.50;4842808;28;20053;-83
2023/01/04 07:18:55;;;;;;;35.65;11.48;;;;;;;-12.68;67.75;99781.31;4857150;28;20051;-84
2023/01/04 07:21:30;;;;;;;18.73;6.53;;;;;;;-11.93;68.27;99891.19;4867885;28;20042;-84
2023/01/04 07:32:51;;;;;;;7.70;2.92;;;;;;;-11.82;68.06;99900.31;4776288;29;20067;-83
2023/01/04 07:39:18;;;;;;;14.35;4.72;;;;;;;-13.02;69.15;99729.47;4646236;29;20096;-83
2023/01/04 07:41:51;;;;;;;3.03;2.58;;;;;;;-12.05;69.84;99890.38;4653480;29;20051;-82
2023/01/04 07:44:24;;;;;;;8.10;3.15;;;;;;;-12.18;69.19;99879.50;4656192;29;20051;-83
2023/01/04 07:47:13;;;;;;;6.03;2.88;;;;;;;-11.98;68.99;99892.53;4734854;29;20049;-82
2023/01/04 07:49:47;;;;;;;5.38;2.58;;;;;;;-11.95;69.13;99897.78;4734522;29;20049;-83
2023/01/04 07:52:18;;;;;;;9.52;3.42;;;;;;;-11.91;69.25;99904.75;4740083;29;20067;-84
2023/01/04 07:54:56;;;;;;;12.27;4.75;;;;;;;-11.83;69.30;99917.81;4741346;29;20404;-83
2023/01/04 07:57:29;;;;;;;10.10;3.85;;;;;;;-11.84;69.11;99903.50;4741390;29;20079;-82
2023/01/04 08:00:03;;;;;;;7.95;3.60;;;;;;;-11.90;69.23;99901.47;4743415;29;20067;-83
2023/01/04 08:02:49;;;;;;;8.93;3.55;;;;;;;-12.43;69.46;99800.53;4738997;29;20185;-84
2023/01/04 08:05:50;;;;;;;8.02;4.65;;;;;;;-11.82;69.54;99925.50;4722778;29;20051;-83
2023/01/04 08:08:23;;;;;;;22.45;7.65;;;;;;;-11.93;69.52;99883.63;4757148;29;20056;-83
2023/01/04 08:10:54;;;;;;;34.38;10.65;;;;;;;-11.84;69.62;99906.88;4764727;28;20096;-84
2023/01/04 08:13:46;;;;;;;18.23;6.95;;;;;;;-12.87;69.73;99736.41;4825499;28;20126;-83
2023/01/04 08:16:24;;;;;;;11.77;4.75;;;;;;;-12.53;69.80;99806.59;4857805;28;20054;-83
2023/01/04 08:19:13;;;;;;;13.77;4.07;;;;;;;-11.90;70.16;99895.53;4951482;28;20122;-83
2023/01/04 08:21:49;;;;;;;8.90;3.45;;;;;;;-11.84;70.57;99906.00;4917968;28;20427;-83
2023/01/04 08:24:28;;;;;;;7.88;2.67;;;;;;;-11.82;70.94;99900.31;4941194;28;20054;-83
2023/01/04 08:27:00;;;;;;;9.73;3.72;;;;;;;-12.36;70.94;99801.84;4914886;28;20341;-84
2023/01/04 08:29:31;;;;;;;7.28;2.80;;;;;;;-11.86;70.73;99908.41;4926264;28;20053;-82
2023/01/04 08:32:14;;;;;;;12.30;4.05;;;;;;;-12.02;70.65;99885.53;4923567;28;20048;-84
2023/01/04 08:34:49;;;;;;;7.05;3.78;;;;;;;-12.90;70.73;99768.00;4879462;28;20318;-84
2023/01/04 08:37:35;;;;;;;21.33;7.13;;;;;;;-13.13;71.01;99758.91;4938107;28;20097;-83
2023/01/04 08:40:10;;;;;;;23.55;7.60;;;;;;;-12.81;71.37;99801.34;4926731;28;20055;-84
2023/01/04 08:42:46;;;;;;;50.75;14.70;;;;;;;-12.38;71.65;99889.84;4936515;28;20040;-83
2023/01/04 08:45:50;;;;;;;61.95;20.85;;;;;;;-13.14;71.70;99750.50;4944216;28;20172;-83
2023/01/04 08:48:32;;;;;;;50.88;18.27;;;;;;;-13.08;71.91;99795.28;4920902;28;20059;-82
2023/01/04 08:51:23;;;;;;;27.00;10.10;;;;;;;-12.38;71.75;99910.88;4942215;28;20353;-82
2023/01/04 08:57:07;;;;;;;10.10;5.55;;;;;;;-12.62;72.68;99915.06;4917400;28;20047;-81
2023/01/04 08:59:49;;;;;;;5.53;3.50;;;;;;;-12.57;73.13;99914.53;4938207;28;20051;-82
2023/01/04 09:02:24;;;;;;;5.65;2.90;;;;;;;-12.50;73.62;99914.16;4927686;28;20048;-82
2023/01/04 09:04:59;;;;;;;5.90;3.55;;;;;;;-12.42;73.72;99913.06;4943258;28;20052;-83
2023/01/04 09:07:37;;;;;;;11.55;3.92;;;;;;;-12.56;73.59;99888.59;4935816;28;20044;-82
2023/01/04 09:10:39;;;;;;;30.92;10.02;;;;;;;-12.42;73.74;99897.97;4934723;28;20130;-83
2023/01/04 09:13:37;;;;;;;44.95;14.05;;;;;;;-12.30;73.88;99901.31;4921768;28;20124;-81
2023/01/04 09:16:14;;;;;;;21.33;8.23;;;;;;;-12.79;73.93;99814.91;4924891;28;20043;-81
2023/01/04 09:19:11;;;;;;;24.42;8.75;;;;;;;-12.32;73.54;99902.84;4919845;28;20075;-81
2023/01/04 09:21:53;;;;;;;20.90;7.60;;;;;;;-12.57;73.06;99881.81;4917663;28;20052;-81
2023/01/04 09:24:26;;;;;;;30.10;9.65;;;;;;;-12.55;72.83;99910.44;4924934;28;20355;-81
2023/01/04 09:27:05;;;;;;;29.02;9.60;;;;;;;-12.58;72.95;99920.31;4930041;28;20134;-81
2023/01/04 09:29:47;;;;;;;23.88;9.05;;;;;;;-12.67;73.19;99902.97;4933208;28;20087;-82
2023/01/04 09:32:18;;;;;;;17.98;7.03;;;;;;;-12.76;73.33;99885.56;4936649;28;20059;-81
2023/01/04 09:34:56;;;;;;;14.00;6.28;;;;;;;-12.60;73.55;99908.50;4925122;28;20060;-81
2023/01/04 09:37:30;;;;;;;32.53;9.18;;;;;;;-12.67;73.48;99906.34;4945023;28;20040;-80
2023/01/04 09:40:03;;;;;;;37.28;10.57;;;;;;;-12.45;74.15;99912.88;4926613;28;20052;-81
2023/01/04 09:42:42;;;;;;;78.32;17.30;;;;;;;-12.49;73.81;99920.97;4933258;28;20083;-81
2023/01/04 09:45:19;;;;;;;84.90;22.58;;;;;;;-12.54;73.74;99927.31;4922133;28;20258;-81
2023/01/04 09:48:05;;;;;;;76.40;19.60;;;;;;;-12.83;73.64;99873.31;4926740;28;20057;-82
2023/01/04 09:50:55;;;;;;;81.32;19.65;;;;;;;-12.56;73.81;99908.72;4931593;28;20093;-81
2023/01/04 09:53:30;;;;;;;43.95;11.70;;;;;;;-12.54;73.39;99897.13;4930031;28;20052;-82
2023/01/04 09:56:09;;;;;;;13.35;5.70;;;;;;;-12.93;73.50;99840.75;4935637;28;20060;-81
2023/01/04 09:58:53;;;;;;;33.67;9.20;;;;;;;-12.48;73.63;99923.59;4930331;28;20044;-81
2023/01/04 10:01:52;;;;;;;51.13;12.45;;;;;;;-12.41;74.11;99919.84;4927166;28;20043;-81
2023/01/04 10:04:43;;;;;;;39.67;10.57;;;;;;;-12.47;74.30;99884.19;4925933;28;20060;-82
2023/01/04 10:07:30;;;;;;;62.50;15.80;;;;;;;-12.26;74.13;99915.84;4927314;28;20052;-81
2023/01/04 10:10:08;;;;;;;65.10;16.92;;;;;;;-12.29;73.52;99919.81;4933368;28;20058;-81
2023/01/04 10:12:51;;;;;;;24.67;8.77;;;;;;;-12.53;73.25;99898.84;4942156;28;20045;-81
2023/01/04 10:15:40;;;;;;;47.53;12.57;;;;;;;-12.60;73.42;99878.31;4929937;28;20052;-81
2023/01/04 10:18:45;;;;;;;21.02;7.68;;;;;;;-12.54;72.93;99923.16;4927345;28;20097;-81
2023/01/04 10:29:07;;;;;;;13.95;7.10;;;;;;;-13.09;72.98;99910.09;4922658;28;20098;-81
2023/01/04 10:32:13;;;;;;;14.52;5.60;;;;;;;-13.53;72.99;99880.16;4911828;28;20103;-81
2023/01/04 10:35:19;;;;;;;35.45;11.23;;;;;;;-13.29;73.88;99920.41;4926786;28;20158;-81
2023/01/04 10:38:16;;;;;;;27.17;9.65;;;;;;;-13.23;74.54;99925.81;4929659;28;20056;-81
2023/01/04 10:40:49;;;;;;;40.33;12.27;;;;;;;-13.87;74.59;99815.69;4923206;28;20078;-81
2023/01/04 10:43:40;;;;;;;85.03;21.55;;;;;;;-13.27;74.09;99928.94;4939381;28;20101;-81
2023/01/04 10:46:53;;;;;;;23.25;9.15;;;;;;;-13.65;73.69;99922.00;4914251;28;20040;-81
2023/01/04 10:49:42;;;;;;;9.63;5.63;;;;;;;-13.62;73.85;99934.78;4923292;28;20101;-81
2023/01/04 10:52:29;;;;;;;11.77;6.10;;;;;;;-13.65;74.44;99923.63;4923711;28;20097;-83
2023/01/04 10:55:08;;;;;;;9.43;5.25;;;;;;;-13.70;74.86;99940.88;4918451;28;20072;-81
2023/01/04 10:58:07;;;;;;;14.40;7.65;;;;;;;-13.68;75.62;99934.31;4917605;28;20091;-82
2023/01/04 11:01:07;;;;;;;13.87;6.53;;;;;;;-13.70;75.93;99915.78;4926333;28;20141;-82
2023/01/04 11:04:00;;;;;;;10.77;4.38;;;;;;;-13.50;76.27;99920.59;4937197;28;20278;-81
2023/01/04 11:06:54;;;;;;;31.13;7.78;;;;;;;-13.25;76.46;99919.84;4914822;28;20252;-82
2023/01/04 11:09:29;;;;;;;77.82;17.80;;;;;;;-13.45;75.68;99898.31;4925178;28;20059;-82
2023/01/04 11:12:04;;;;;;;78.07;17.67;;;;;;;-13.51;75.66;99938.94;4924059;28;20097;-82
2023/01/04 11:14:36;;;;;;;50.05;11.85;;;;;;;-13.70;75.38;99925.81;4930592;28;20070;-82
2023/01/04 11:17:11;;;;;;;37.35;9.43;;;;;;;-13.98;75.71;99883.56;4935885;28;20181;-82
2023/01/04 11:19:43;;;;;;;6.72;4.03;;;;;;;-13.77;75.48;99919.44;4923144;28;20241;-82
2023/01/04 11:22:29;;;;;;;10.05;3.55;;;;;;;-13.78;76.00;99914.31;4930034;28;20049;-82
2023/01/04 11:28:14;;;;;;;4.55;3.00;;;;;;;-14.03;76.08;99879.84;4924487;28;20040;-82
2023/01/04 11:30:55;;;;;;;5.95;3.22;;;;;;;-14.06;76.38;99894.69;4924560;28;20044;-82
2023/01/04 11:33:27;;;;;;;8.55;4.97;;;;;;;-13.63;76.97;99925.47;4920155;28;20072;-82
2023/01/04 11:36:00;;;;;;;24.20;11.07;;;;;;;-13.60;76.88;99920.69;4931818;28;20048;-82
2023/01/04 11:39:13;;;;;;;11.00;5.00;;;;;;;-13.51;76.84;99918.84;4933254;28;20337;-81
2023/01/04 11:42:27;;;;;;;9.05;5.40;;;;;;;-13.67;76.92;99900.91;4925221;28;20051;-84
2023/01/04 11:45:01;;;;;;;10.60;4.63;;;;;;;-13.70;76.82;99895.66;4921831;28;20048;-82
2023/01/04 11:47:32;;;;;;;11.20;4.60;;;;;;;-13.91;76.56;99885.78;4922255;28;20056;-84
2023/01/04 11:50:55;;;;;;;4.22;2.50;;;;;;;-13.85;77.21;99913.00;4928430;28;20105;-84
2023/01/04 11:53:34;;;;;;;3.13;2.53;;;;;;;-13.88;77.88;99899.31;4938229;28;20044;-82
2023/01/04 11:56:15;;;;;;;3.95;2.45;;;;;;;-13.82;78.08;99909.84;4918476;28;20392;-83
2023/01/04 11:59:01;;;;;;;2.80;2.20;;;;;;;-13.82;77.75;99907.31;4919086;28;20063;-83
2023/01/04 12:01:34;;;;;;;2.58;2.30;;;;;;;-13.87;78.32;99898.56;4907545;28;20055;-83
2023/01/04 12:04:10;;;;;;;5.53;3.28;;;;;;;-13.75;78.45;99907.00;4934664;28;20039;-82
2023/01/04 12:06:49;;;;;;;9.60;4.95;;;;;;;-13.54;78.79;99908.56;4926706;28;20357;-81
2023/01/04 12:16:46;;;;;;;13.63;6.72;;;;;;;-13.29;77.50;99905.31;4838765;28;20408;-80
2023/01/04 12:19:21;;;;;;;17.05;8.23;;;;;;;-13.19;77.77;99910.22;4872810;28;20048;-81
2023/01/04 12:21:59;;;;;;;21.65;9.15;;;;;;;-13.04;77.79;99903.75;4924976;28;20564;-80
2023/01/04 12:24:35;;;;;;;17.98;7.45;;;;;;;-13.08;77.19;99891.75;4928981;28;20057;-79
2023/01/04 12:27:28;;;;;;;19.90;8.35;;;;;;;-12.97;76.80;99904.19;4938455;28;20036;-80
2023/01/04 12:30:02;;;;;;;11.55;7.25;;;;;;;-12.94;76.82;99911.97;4933656;28;20389;-80
2023/01/04 12:36:05;;;;;;;6.97;4.22;;;;;;;-12.72;76.68;99911.81;4924834;28;20068;-80
2023/01/04 12:39:05;;;;;;;17.25;7.82;;;;;;;-12.68;76.67;99909.63;4925910;28;20086;-81
2023/01/04 12:42:25;;;;;;;19.83;6.88;;;;;;;-12.86;75.65;99908.31;4940478;28;20189;-81
2023/01/04 12:45:28;;;;;;;11.57;5.25;;;;;;;-12.86;75.65;99910.84;4916460;28;20040;-81
2023/01/04 12:51:19;;;;;;;25.70;10.25;;;;;;;-12.91;74.66;99904.63;4934265;28;20390;-81
2023/01/04 12:54:30;;;;;;;21.42;8.35;;;;;;;-12.92;74.39;99900.38;4929960;28;20469;-81
2023/01/04 12:57:26;;;;;;;14.73;6.32;;;;;;;-12.95;74.23;99902.63;4917713;28;20052;-82
2023/01/04 13:00:10;;;;;;;11.07;5.03;;;;;;;-13.10;74.02;99875.66;4934784;28;20044;-81
2023/01/04 13:03:08;;;;;;;7.68;2.55;;;;;;;-12.74;75.64;99899.13;4920032;28;20312;-81
2023/01/04 13:05:41;;;;;;;7.20;2.95;;;;;;;-13.01;75.12;99872.03;4919485;28;20048;-81
2023/01/04 13:08:32;;;;;;;6.18;3.75;;;;;;;-12.91;75.56;99909.66;4910801;28;20077;-82
2023/01/04 13:11:21;;;;;;;2.95;2.50;;;;;;;-12.99;75.79;99875.56;4920695;28;20137;-82
2023/01/04 13:14:01;;;;;;;8.88;2.90;;;;;;;-13.63;76.49;99751.25;4923072;28;20057;-82
2023/01/04 13:16:43;;;;;;;3.25;2.47;;;;;;;-12.63;76.90;99897.34;4932553;28;20049;-83
2023/01/04 13:19:22;;;;;;;3.08;2.33;;;;;;;-12.93;76.54;99853.31;4926810;28;20048;-82
2023/01/04 13:21:56;;;;;;;6.88;3.00;;;;;;;-12.71;76.38;99899.34;4922408;28;20052;-84
2023/01/04 13:25:15;;;;;;;;;;;;;;;;;;;;;
2023/01/04 13:28:48;;;;;;;2.50;1.88;;;;;;;-12.71;76.76;99903.50;4913222;28;20054;-83
2023/01/04 13:40:29;;;;;;;6.95;3.55;;;;;;;-13.04;76.13;99913.81;4879263;28;20070;-81
2023/01/04 13:43:34;;;;;;;17.88;8.57;;;;;;;-13.41;76.29;99854.16;4883737;28;20057;-81
2023/01/04 13:46:16;;;;;;;21.48;7.97;;;;;;;-13.04;76.26;99893.69;4896714;28;20045;-82
2023/01/04 13:48:51;;;;;;;12.27;4.40;;;;;;;-13.11;76.13;99886.47;4891257;28;20089;-82
2023/01/04 13:51:37;;;;;;;14.27;6.72;;;;;;;-13.58;75.27;99853.81;4896729;28;20122;-82
2023/01/04 13:55:01;;;;;;;23.95;8.80;;;;;;;-13.27;74.99;99898.78;4878767;28;20376;-81
2023/01/04 13:57:58;;;;;;;13.68;6.35;;;;;;;-13.30;75.78;99881.84;4857911;28;20045;-82
2023/01/04 14:00:30;;;;;;;;;;;;;;;-13.50;74.31;99889.59;4891627;28;20067;-82
2023/01/04 14:03:25;;;;;;;12.85;5.68;;;;;;;-13.80;73.73;99860.56;4889706;28;20228;-82
2023/01/04 14:06:04;;;;;;;14.80;4.82;;;;;;;-13.59;73.99;99894.81;4879212;28;20053;-82
2023/01/04 14:08:40;;;;;;;13.27;5.43;;;;;;;-13.96;74.07;99844.38;4893104;28;20051;-82
2023/01/04 14:11:57;;;;;;;13.02;5.70;;;;;;;-13.76;73.43;99901.09;4933638;28;24943;-82
2023/01/04 14:14:24;;;;;;;10.63;5.35;;;;;;;-14.02;73.74;99891.66;4939920;28;20131;-83
2023/01/04 14:17:32;;;;;;;19.77;6.57;;;;;;;-14.62;73.91;99833.63;4930562;28;20077;-81
2023/01/04 14:20:05;;;;;;;15.32;6.00;;;;;;;-14.05;75.49;99871.34;4934978;28;20050;-82
2023/01/04 14:22:42;;;;;;;25.65;8.52;;;;;;;-13.93;75.64;99889.78;4921623;28;20049;-79